Time;durP1;ratioP1;P1;durP2;ratioP2;P2;SDS_P1;SDS_P2;PMS_P1;PMS_P2;Temp;Humidity;BMP_temperature;BMP_pressure;BME280_temperature;BME280_humidity;BME280_pressure;Samples;Min_cycle;Max_cycle;Signal;HPM_P1;HPM_P2
2020/12/21 00:00:34;;;;;;;21.07;18.53;;;7.40;99.90;;;;;;5020969;28;20461;-71
2020/12/21 00:03:01;;;;;;;22.20;19.80;;;7.40;99.90;;;;;;5027372;28;20510;-71
2020/12/21 00:05:28;;;;;;;20.80;18.80;;;7.30;99.90;;;;;;5026942;28;20450;-71
2020/12/21 00:07:54;;;;;;;20.83;18.60;;;7.20;99.90;;;;;;5014689;28;20989;-72
2020/12/21 00:10:21;;;;;;;22.30;18.30;;;7.30;99.90;;;;;;5013019;28;20458;-71
2020/12/21 00:12:48;;;;;;;22.83;18.73;;;7.30;99.90;;;;;;5014217;28;20929;-71
2020/12/21 00:15:15;;;;;;;20.03;17.93;;;7.20;99.90;;;;;;5013503;28;20500;-71
2020/12/21 00:17:41;;;;;;;20.00;18.00;;;7.20;99.90;;;;;;5013982;28;20477;-71
2020/12/21 00:20:08;;;;;;;19.83;17.77;;;7.30;99.90;;;;;;5013934;28;20540;-71
2020/12/21 00:22:34;;;;;;;21.50;17.73;;;7.20;99.90;;;;;;5013426;28;20453;-71
2020/12/21 00:25:00;;;;;;;19.47;17.57;;;7.30;99.90;;;;;;5013098;28;20945;-71
2020/12/21 00:27:27;;;;;;;20.57;18.37;;;7.20;99.90;;;;;;5013766;28;20515;-72
2020/12/21 00:29:53;;;;;;;20.47;18.47;;;7.20;99.90;;;;;;5013455;28;20440;-71
2020/12/21 00:32:20;;;;;;;20.47;18.33;;;7.20;99.90;;;;;;5013681;28;20814;-71
2020/12/21 00:34:46;;;;;;;20.20;18.10;;;7.20;99.90;;;;;;5012851;28;20452;-71
2020/12/21 00:37:13;;;;;;;19.63;17.53;;;7.20;99.90;;;;;;5013362;28;20452;-71
2020/12/21 00:39:39;;;;;;;20.67;18.50;;;7.20;99.90;;;;;;5013458;28;20489;-71
2020/12/21 00:42:05;;;;;;;19.40;17.60;;;7.30;99.90;;;;;;5013767;28;20449;-71
2020/12/21 00:44:32;;;;;;;20.07;17.93;;;7.20;99.90;;;;;;5013002;28;20831;-71
2020/12/21 00:46:58;;;;;;;20.57;18.30;;;7.20;99.90;;;;;;5013301;28;20566;-71
2020/12/21 00:49:25;;;;;;;27.73;18.93;;;7.10;99.90;;;;;;5013281;28;20471;-71
2020/12/21 00:51:51;;;;;;;23.03;19.50;;;7.20;99.90;;;;;;5013069;28;20500;-71
2020/12/21 00:54:18;;;;;;;22.77;18.10;;;7.10;99.90;;;;;;5013057;28;20458;-71
2020/12/21 00:56:44;;;;;;;21.23;18.73;;;7.10;99.90;;;;;;5013281;28;20511;-71
2020/12/21 00:59:10;;;;;;;19.73;16.47;;;7.20;99.90;;;;;;5012583;28;20998;-71
2020/12/21 01:01:36;;;;;;;21.43;19.17;;;7.10;99.90;;;;;;5014126;28;20453;-70
2020/12/21 01:04:05;;;;;;;21.70;19.00;;;7.00;99.90;;;;;;5014575;28;20507;-70
2020/12/21 01:06:33;;;;;;;19.60;17.10;;;7.00;99.90;;;;;;5013339;28;20477;-70
2020/12/21 01:09:00;;;;;;;19.80;17.90;;;7.10;99.90;;;;;;5012682;28;20899;-70
2020/12/21 01:11:29;;;;;;;23.10;18.97;;;7.00;99.90;;;;;;5013119;28;20446;-70
2020/12/21 01:13:55;;;;;;;20.50;17.73;;;7.00;99.90;;;;;;5012364;28;20453;-70
2020/12/21 01:16:22;;;;;;;23.20;17.47;;;6.90;99.90;;;;;;5012952;28;20459;-70
2020/12/21 01:18:49;;;;;;;20.80;17.00;;;7.00;99.90;;;;;;5012597;28;20484;-70
2020/12/21 01:21:26;;;;;;;21.10;18.90;;;7.00;99.90;;;;;;5012525;28;20494;-70
2020/12/21 01:23:54;;;;;;;21.17;18.70;;;6.90;99.90;;;;;;5012384;28;20462;-70
2020/12/21 01:26:20;;;;;;;20.47;17.70;;;6.90;99.90;;;;;;5012497;28;20458;-71
2020/12/21 01:28:48;;;;;;;18.83;16.90;;;6.90;99.90;;;;;;5011368;28;20862;-71
2020/12/21 01:31:14;;;;;;;18.00;16.20;;;6.90;99.90;;;;;;5014840;28;20446;-71
2020/12/21 01:33:40;;;;;;;18.93;15.83;;;7.00;99.90;;;;;;5021581;28;20460;-70
2020/12/21 01:36:07;;;;;;;19.30;15.70;;;6.90;99.90;;;;;;5022019;28;20507;-70
2020/12/21 01:38:33;;;;;;;17.20;15.37;;;6.90;99.90;;;;;;5023308;28;20478;-71
2020/12/21 01:41:00;;;;;;;17.83;15.60;;;6.90;99.90;;;;;;5023221;28;20481;-70
2020/12/21 01:43:26;;;;;;;18.47;16.20;;;6.90;99.90;;;;;;5023053;28;20517;-70
2020/12/21 01:45:53;;;;;;;18.60;16.43;;;6.90;99.90;;;;;;5023241;28;20446;-70
2020/12/21 01:48:19;;;;;;;17.33;15.50;;;6.90;99.90;;;;;;5023333;28;20477;-70
2020/12/21 01:50:46;;;;;;;17.20;14.57;;;6.90;99.90;;;;;;5022957;28;20456;-71
2020/12/21 01:53:12;;;;;;;17.70;15.57;;;6.90;99.90;;;;;;5019667;28;20472;-71
2020/12/21 01:55:41;;;;;;;16.53;14.93;;;6.90;99.90;;;;;;5012587;28;20456;-70
2020/12/21 01:58:09;;;;;;;20.77;15.57;;;6.80;99.90;;;;;;5011678;28;20489;-70
2020/12/21 02:00:35;;;;;;;18.33;13.60;;;6.80;99.90;;;;;;5012001;28;20507;-70
2020/12/21 02:03:02;;;;;;;15.97;14.07;;;6.90;99.90;;;;;;5012020;28;20837;-70
2020/12/21 02:05:28;;;;;;;15.97;14.27;;;6.90;99.90;;;;;;5011942;28;20446;-70
2020/12/21 02:07:54;;;;;;;16.97;15.30;;;6.90;99.90;;;;;;5011966;28;20469;-71
2020/12/21 02:10:22;;;;;;;15.47;13.97;;;6.90;99.90;;;;;;5012090;28;20461;-71
2020/12/21 02:12:48;;;;;;;15.80;13.40;;;7.00;99.90;;;;;;5011950;28;20507;-68
2020/12/21 02:15:15;;;;;;;15.87;14.27;;;7.00;99.90;;;;;;5012261;28;20823;-70
2020/12/21 02:17:41;;;;;;;14.97;12.43;;;7.00;99.90;;;;;;5011754;28;20469;-70
2020/12/21 02:20:07;;;;;;;14.93;13.43;;;7.00;99.90;;;;;;5011960;28;20497;-72
2020/12/21 02:22:35;;;;;;;15.23;13.10;;;6.90;99.90;;;;;;5011057;28;21014;-72
2020/12/21 02:25:01;;;;;;;17.90;13.10;;;7.00;99.90;;;;;;5011713;28;20496;-71
2020/12/21 02:27:27;;;;;;;16.10;12.93;;;7.00;99.90;;;;;;5011314;28;20460;-71
2020/12/21 02:29:54;;;;;;;17.13;14.27;;;7.00;99.90;;;;;;5012008;28;20496;-71
2020/12/21 02:32:20;;;;;;;17.13;13.90;;;7.10;99.90;;;;;;5014083;28;20464;-71
2020/12/21 02:34:46;;;;;;;18.23;13.63;;;7.00;99.90;;;;;;5015498;28;20456;-71
2020/12/21 02:37:13;;;;;;;18.70;14.97;;;7.10;99.90;;;;;;5015828;28;20469;-71
2020/12/21 02:39:40;;;;;;;15.47;13.50;;;7.10;99.90;;;;;;5015310;28;21306;-71
2020/12/21 02:42:09;;;;;;;17.07;14.13;;;7.20;99.90;;;;;;5015483;28;20480;-71
2020/12/21 02:44:35;;;;;;;17.90;15.33;;;7.10;99.90;;;;;;5014957;28;20511;-71
2020/12/21 02:47:01;;;;;;;16.53;13.30;;;7.10;99.90;;;;;;5015011;28;20450;-71
2020/12/21 02:49:28;;;;;;;18.90;14.63;;;7.10;99.90;;;;;;5015470;28;20468;-71
2020/12/21 02:51:54;;;;;;;16.30;14.30;;;7.10;99.90;;;;;;5015244;28;20937;-71
2020/12/21 02:54:20;;;;;;;16.67;14.93;;;7.10;99.90;;;;;;5015170;28;20527;-71
2020/12/21 02:56:52;;;;;;;14.77;13.20;;;7.10;99.90;;;;;;5015358;28;20447;-71
2020/12/21 02:59:18;;;;;;;17.00;14.20;;;7.10;99.90;;;;;;5015323;28;20486;-71
2020/12/21 03:01:45;;;;;;;19.47;13.63;;;7.10;99.90;;;;;;5014559;28;20481;-71
2020/12/21 03:04:11;;;;;;;16.17;12.90;;;7.10;99.90;;;;;;5014965;28;21003;-71
2020/12/21 03:06:37;;;;;;;19.70;14.40;;;7.10;99.90;;;;;;5015072;28;20677;-70
2020/12/21 03:09:04;;;;;;;15.60;14.03;;;7.10;99.90;;;;;;5014841;28;20469;-71
2020/12/21 03:11:30;;;;;;;19.57;14.00;;;7.10;99.90;;;;;;5014935;28;20448;-70
2020/12/21 03:13:57;;;;;;;14.17;12.67;;;7.10;99.90;;;;;;5014886;28;20510;-70
2020/12/21 03:16:23;;;;;;;18.60;13.70;;;7.20;99.90;;;;;;5014534;28;20449;-70
2020/12/21 03:18:50;;;;;;;15.93;14.23;;;7.10;99.90;;;;;;5014783;28;20469;-70
2020/12/21 03:21:16;;;;;;;14.70;12.83;;;7.20;99.90;;;;;;5014991;28;20834;-70
2020/12/21 03:23:43;;;;;;;15.77;13.67;;;7.10;99.90;;;;;;5014085;28;20600;-68
2020/12/21 03:26:09;;;;;;;16.43;14.00;;;7.20;99.90;;;;;;5014726;28;21003;-67
2020/12/21 03:28:35;;;;;;;17.33;13.37;;;7.20;99.90;;;;;;5014439;28;20487;-67
2020/12/21 03:31:03;;;;;;;15.93;14.33;;;7.30;99.90;;;;;;5015401;28;20450;-69
2020/12/21 03:33:29;;;;;;;19.67;14.50;;;7.30;99.90;;;;;;5014301;28;20446;-70
2020/12/21 03:35:55;;;;;;;15.30;13.00;;;7.10;99.90;;;;;;5014829;28;20496;-70
2020/12/21 03:38:21;;;;;;;20.87;13.90;;;7.20;99.90;;;;;;5014068;28;20473;-70
2020/12/21 03:40:48;;;;;;;15.60;14.00;;;7.20;99.90;;;;;;5014622;28;20482;-70
2020/12/21 03:43:14;;;;;;;14.90;12.53;;;7.20;99.90;;;;;;5013983;28;20986;-71
2020/12/21 03:45:40;;;;;;;17.57;11.40;;;7.20;99.90;;;;;;5014472;28;20449;-70
2020/12/21 03:48:07;;;;;;;16.50;12.87;;;7.20;99.90;;;;;;5014485;28;20608;-67
2020/12/21 03:50:34;;;;;;;22.67;14.10;;;7.20;99.90;;;;;;5014668;28;20964;-67
2020/12/21 03:53:00;;;;;;;13.90;12.40;;;7.20;99.90;;;;;;5014824;28;20502;-67
2020/12/21 03:55:26;;;;;;;13.47;11.80;;;7.20;99.90;;;;;;5014347;28;20460;-67
2020/12/21 03:57:52;;;;;;;14.70;12.50;;;7.30;99.90;;;;;;5014214;28;20469;-67
2020/12/21 04:00:19;;;;;;;21.40;13.20;;;7.30;99.90;;;;;;5015961;28;20535;-69
2020/12/21 04:02:45;;;;;;;14.40;12.93;;;7.30;99.90;;;;;;5014991;28;21180;-70
2020/12/21 04:05:12;;;;;;;17.57;14.60;;;7.30;99.90;;;;;;5014150;28;20454;-69
2020/12/21 04:07:39;;;;;;;16.90;14.20;;;7.30;99.90;;;;;;5014841;28;20476;-68
2020/12/21 04:10:06;;;;;;;17.60;15.57;;;7.30;99.90;;;;;;5013331;28;20504;-69
2020/12/21 04:12:33;;;;;;;20.93;14.70;;;7.20;99.90;;;;;;5014267;28;20457;-69
2020/12/21 04:14:59;;;;;;;18.57;14.70;;;7.30;99.90;;;;;;5013271;28;20519;-69
2020/12/21 04:17:25;;;;;;;16.83;14.33;;;7.30;99.90;;;;;;5013896;28;20456;-70
2020/12/21 04:19:52;;;;;;;16.20;14.20;;;7.30;99.90;;;;;;5014894;28;20552;-70
2020/12/21 04:22:19;;;;;;;15.60;14.03;;;7.40;99.90;;;;;;5016095;28;20816;-70
2020/12/21 04:24:45;;;;;;;16.10;14.40;;;7.40;99.90;;;;;;5015443;28;20453;-70
2020/12/21 04:27:12;;;;;;;16.27;14.67;;;7.40;99.90;;;;;;5014208;28;20454;-71
2020/12/21 04:29:38;;;;;;;21.13;16.30;;;7.40;99.90;;;;;;5024308;28;20445;-71
2020/12/21 04:32:05;;;;;;;17.53;14.47;;;7.40;99.90;;;;;;5028082;28;20445;-71
2020/12/21 04:34:31;;;;;;;17.23;14.37;;;7.40;99.90;;;;;;5022451;28;20454;-70
2020/12/21 04:36:57;;;;;;;18.13;15.63;;;7.40;99.90;;;;;;5013734;28;20450;-71
2020/12/21 04:39:24;;;;;;;16.50;14.70;;;7.40;99.90;;;;;;5013524;28;20503;-71
2020/12/21 04:41:52;;;;;;;18.47;16.13;;;7.40;99.90;;;;;;5002645;28;20485;-71
2020/12/21 04:44:20;;;;;;;19.03;15.30;;;7.40;99.90;;;;;;5013494;28;20465;-72
2020/12/21 04:46:48;;;;;;;16.30;14.73;;;7.40;99.90;;;;;;5013532;28;20458;-71
2020/12/21 04:49:16;;;;;;;16.90;15.10;;;7.40;99.90;;;;;;5013045;28;20992;-70
2020/12/21 04:51:45;;;;;;;18.17;15.37;;;7.40;99.90;;;;;;5013257;28;20442;-71
2020/12/21 04:54:11;;;;;;;20.03;16.90;;;7.40;99.90;;;;;;5011288;28;20477;-71
2020/12/21 04:56:40;;;;;;;17.23;15.10;;;7.40;99.90;;;;;;5012918;28;20445;-71
2020/12/21 04:59:06;;;;;;;15.83;14.33;;;7.40;99.90;;;;;;5013012;28;20477;-71
2020/12/21 05:01:33;;;;;;;16.93;15.00;;;7.40;99.90;;;;;;5013033;28;20505;-71
2020/12/21 05:03:59;;;;;;;17.50;15.70;;;7.40;99.90;;;;;;5013184;28;20445;-71
2020/12/21 05:06:25;;;;;;;17.07;15.30;;;7.40;99.90;;;;;;5012546;28;20458;-70
2020/12/21 05:09:00;;;;;;;20.70;16.60;;;7.40;99.90;;;;;;5012553;28;20465;-70
2020/12/21 05:11:27;;;;;;;18.30;16.40;;;7.40;99.90;;;;;;5013018;28;20433;-71
2020/12/21 05:14:07;;;;;;;16.80;14.73;;;7.40;99.90;;;;;;5013234;28;20496;-71
2020/12/21 05:16:34;;;;;;;17.67;15.83;;;7.40;99.90;;;;;;5012357;28;20496;-70
2020/12/21 05:19:00;;;;;;;18.47;16.37;;;7.40;99.90;;;;;;5012670;28;20469;-70
2020/12/21 05:21:28;;;;;;;18.03;16.43;;;7.40;99.90;;;;;;5011972;28;20488;-71
2020/12/21 05:23:58;;;;;;;18.37;16.40;;;7.40;99.90;;;;;;5011881;28;20457;-71
2020/12/21 05:26:29;;;;;;;18.53;15.73;;;7.50;99.90;;;;;;5012340;28;20446;-71
2020/12/21 05:28:56;;;;;;;21.50;18.20;;;7.50;99.90;;;;;;5012368;28;20512;-71
2020/12/21 05:31:23;;;;;;;20.77;16.37;;;7.40;99.90;;;;;;5012384;28;20449;-71
2020/12/21 05:33:49;;;;;;;18.30;16.50;;;7.40;99.90;;;;;;5012667;28;20445;-71
2020/12/21 05:36:17;;;;;;;17.83;15.93;;;7.50;99.90;;;;;;5011805;28;20839;-71
2020/12/21 05:38:44;;;;;;;19.60;17.70;;;7.50;99.90;;;;;;5011808;28;20480;-71
2020/12/21 05:41:13;;;;;;;18.67;16.53;;;7.50;99.90;;;;;;5009386;28;20863;-71
2020/12/21 05:43:40;;;;;;;19.17;16.67;;;7.50;99.90;;;;;;5010202;28;20454;-71
2020/12/21 05:46:10;;;;;;;18.33;16.53;;;7.50;99.90;;;;;;5010841;28;20935;-71
2020/12/21 05:48:39;;;;;;;18.83;16.60;;;7.50;99.90;;;;;;5010077;28;20469;-71
2020/12/21 05:51:07;;;;;;;19.33;17.43;;;7.50;99.90;;;;;;5010141;28;20456;-71
2020/12/21 05:53:36;;;;;;;22.40;16.90;;;7.50;99.90;;;;;;5010214;28;20454;-71
2020/12/21 05:56:04;;;;;;;19.30;16.43;;;7.50;99.90;;;;;;5009487;28;20446;-71
2020/12/21 05:58:32;;;;;;;18.57;16.57;;;7.50;99.90;;;;;;5011597;28;20898;-71
2020/12/21 06:01:00;;;;;;;20.40;17.20;;;7.50;99.90;;;;;;5011793;28;20477;-71
2020/12/21 06:03:37;;;;;;;18.47;16.83;;;7.60;99.90;;;;;;5011801;28;20453;-70
2020/12/21 06:06:07;;;;;;;17.43;15.40;;;7.50;99.90;;;;;;5011950;28;20549;-70
2020/12/21 06:08:35;;;;;;;19.40;16.60;;;7.50;99.90;;;;;;5011783;28;20512;-71
2020/12/21 06:11:08;;;;;;;18.93;16.47;;;7.50;99.90;;;;;;5011803;28;20478;-71
2020/12/21 06:13:38;;;;;;;21.17;17.13;;;7.60;99.90;;;;;;5011348;28;20532;-68
2020/12/21 06:16:05;;;;;;;17.93;16.13;;;7.60;99.90;;;;;;5012343;28;20457;-68
2020/12/21 06:18:33;;;;;;;19.07;16.40;;;7.60;99.90;;;;;;5012217;28;20469;-68
2020/12/21 06:20:59;;;;;;;17.80;16.10;;;7.60;99.90;;;;;;5012538;28;20512;-68
2020/12/21 06:23:37;;;;;;;17.13;15.43;;;7.60;99.90;;;;;;5011881;28;20453;-68
2020/12/21 06:26:11;;;;;;;19.30;14.60;;;7.60;99.90;;;;;;5011580;28;20533;-68
2020/12/21 06:28:38;;;;;;;16.03;14.33;;;7.70;99.90;;;;;;5011796;28;20487;-68
2020/12/21 06:31:15;;;;;;;16.90;15.20;;;7.60;99.90;;;;;;5012411;28;20441;-71
2020/12/21 06:33:42;;;;;;;19.30;14.90;;;7.70;99.90;;;;;;5012063;28;20468;-71
2020/12/21 06:36:09;;;;;;;17.83;15.97;;;7.70;99.90;;;;;;5011747;28;20446;-71
2020/12/21 06:38:47;;;;;;;20.87;15.50;;;7.70;99.90;;;;;;5011754;28;20465;-71
2020/12/21 06:41:15;;;;;;;16.10;14.03;;;7.70;99.90;;;;;;5011657;28;21004;-68
2020/12/21 06:43:52;;;;;;;16.23;13.03;;;7.70;99.90;;;;;;5011636;28;20827;-68
2020/12/21 06:46:19;;;;;;;15.73;13.40;;;7.80;99.90;;;;;;5012403;28;20445;-69
2020/12/21 06:48:59;;;;;;;21.47;13.97;;;7.80;99.90;;;;;;5011544;28;20528;-68
2020/12/21 06:51:25;;;;;;;16.73;14.50;;;7.80;99.90;;;;;;5011932;28;20452;-68
2020/12/21 06:53:57;;;;;;;14.83;13.43;;;7.80;99.90;;;;;;5012085;28;20451;-68
2020/12/21 06:56:26;;;;;;;16.50;13.80;;;7.80;99.90;;;;;;5011824;28;20454;-68
2020/12/21 06:58:55;;;;;;;15.50;13.33;;;7.80;99.90;;;;;;5011877;28;20552;-68
2020/12/21 07:01:23;;;;;;;21.63;14.77;;;7.80;99.90;;;;;;5011169;28;20486;-68
2020/12/21 07:03:51;;;;;;;17.53;13.40;;;7.80;99.90;;;;;;5011724;28;20508;-68
2020/12/21 07:06:17;;;;;;;13.73;12.20;;;7.80;99.90;;;;;;5011765;28;20957;-68
2020/12/21 07:08:44;;;;;;;15.10;12.70;;;7.80;99.90;;;;;;5011919;28;20474;-68
2020/12/21 07:11:19;;;;;;;15.80;13.43;;;7.80;99.90;;;;;;5011534;28;20462;-67
2020/12/21 07:13:48;;;;;;;15.43;12.40;;;7.80;99.90;;;;;;5010531;28;20491;-68
2020/12/21 07:16:15;;;;;;;17.10;13.20;;;7.80;99.90;;;;;;5012144;28;20454;-70
2020/12/21 07:18:42;;;;;;;17.47;13.80;;;7.70;99.90;;;;;;5014257;28;20607;-71
2020/12/21 07:21:10;;;;;;;13.77;12.27;;;7.70;99.90;;;;;;5014324;28;20860;-71
2020/12/21 07:23:37;;;;;;;15.13;13.40;;;7.60;99.90;;;;;;5013992;28;20449;-71
2020/12/21 07:26:04;;;;;;;8.37;5.20;;;7.60;99.90;;;;;;5014973;28;20449;-70
2020/12/21 07:28:30;;;;;;;7.37;4.43;;;9.20;99.90;;;;;;5014926;28;20543;-70
2020/12/21 07:31:10;;;;;;;9.20;5.10;;;13.30;99.90;;;;;;5014666;28;20448;-70
2020/12/21 07:33:52;;;;;;;9.63;5.00;;;14.80;99.90;;;;;;5013148;28;20472;-69
2020/12/21 07:36:20;;;;;;;7.30;4.10;;;15.90;99.90;;;;;;5015031;28;20431;-70
2020/12/21 07:38:46;;;;;;;10.73;7.33;;;16.30;99.90;;;;;;5015761;28;20473;-70
2020/12/21 07:41:14;;;;;;;6.80;4.73;;;16.40;99.90;;;;;;5016856;28;20504;-70
2020/12/21 07:43:44;;;;;;;7.67;4.50;;;17.10;99.90;;;;;;5014957;28;20460;-70
2020/12/21 07:46:19;;;;;;;6.70;5.43;;;18.20;99.90;;;;;;5014919;28;20457;-70
2020/12/21 07:48:46;;;;;;;10.60;4.20;;;18.70;99.90;;;;;;5014249;28;20503;-70
2020/12/21 07:51:15;;;;;;;5.40;4.10;;;19.40;99.90;;;;;;5014278;28;20441;-70
2020/12/21 07:53:42;;;;;;;10.47;3.90;;;19.70;99.90;;;;;;5013811;28;20454;-70
2020/12/21 07:56:14;;;;;;;8.10;3.20;;;19.80;99.90;;;;;;5014345;28;20453;-70
2020/12/21 07:58:40;;;;;;;5.30;3.63;;;20.00;99.90;;;;;;5013878;28;20535;-69
2020/12/21 08:01:07;;;;;;;10.73;4.00;;;19.70;99.90;;;;;;5013829;28;20976;-69
2020/12/21 08:03:38;;;;;;;6.23;3.60;;;20.00;99.90;;;;;;5014048;28;20547;-70
2020/12/21 08:06:09;;;;;;;7.53;3.30;;;20.30;99.90;;;;;;5013107;28;20450;-70
2020/12/21 08:08:35;;;;;;;5.47;4.23;;;20.50;99.90;;;;;;5014111;28;20580;-70
2020/12/21 08:11:03;;;;;;;9.93;3.73;;;20.50;99.90;;;;;;5013349;28;20460;-69
2020/12/21 08:13:32;;;;;;;6.47;3.90;;;20.70;99.90;;;;;;5013377;28;20458;-67
2020/12/21 08:16:09;;;;;;;8.23;3.90;;;20.70;99.90;;;;;;5013129;28;20452;-70
2020/12/21 08:18:35;;;;;;;10.37;7.67;;;20.70;99.90;;;;;;5012722;28;21003;-69
2020/12/21 08:21:01;;;;;;;14.60;11.20;;;14.40;99.90;;;;;;5013779;28;20547;-67
2020/12/21 08:23:30;;;;;;;13.80;11.63;;;10.00;99.90;;;;;;5013897;28;20450;-67
2020/12/21 08:25:58;;;;;;;13.40;11.40;;;9.40;99.90;;;;;;5013858;28;20578;-69
2020/12/21 08:28:30;;;;;;;15.43;10.23;;;9.00;99.90;;;;;;5012807;28;20481;-70
2020/12/21 08:31:13;;;;;;;14.73;10.10;;;9.00;99.90;;;;;;5013514;28;20449;-70
2020/12/21 08:33:43;;;;;;;15.17;11.17;;;9.10;99.90;;;;;;5013139;28;20487;-70
2020/12/21 08:36:19;;;;;;;12.93;9.90;;;8.70;99.90;;;;;;4995040;28;20812;-70
2020/12/21 08:38:46;;;;;;;14.60;10.20;;;8.60;99.90;;;;;;5012454;28;20475;-69
2020/12/21 08:41:12;;;;;;;13.10;9.47;;;8.30;99.90;;;;;;5000372;28;20948;-73
2020/12/21 08:43:40;;;;;;;12.20;9.70;;;8.20;99.90;;;;;;5013337;28;20953;-69
2020/12/21 08:46:07;;;;;;;12.17;9.97;;;8.20;99.90;;;;;;5013575;28;20458;-69
2020/12/21 08:48:37;;;;;;;14.53;9.10;;;8.30;99.90;;;;;;5009614;28;20608;-69
2020/12/21 08:51:03;;;;;;;11.60;9.63;;;8.40;99.90;;;;;;5012896;28;20452;-69
2020/12/21 08:53:30;;;;;;;9.83;8.83;;;8.70;99.90;;;;;;5013330;28;20445;-70
2020/12/21 08:55:56;;;;;;;11.00;8.53;;;9.20;99.90;;;;;;5011445;28;20993;-69
2020/12/21 08:58:22;;;;;;;9.03;8.13;;;9.90;99.90;;;;;;5023310;28;20472;-69
2020/12/21 09:00:49;;;;;;;12.90;8.37;;;10.00;99.90;;;;;;5023174;28;20489;-71
2020/12/21 09:03:15;;;;;;;10.30;7.60;;;10.60;99.90;;;;;;5017475;28;20464;-69
2020/12/21 09:05:42;;;;;;;12.83;8.03;;;10.70;99.90;;;;;;5013420;28;20450;-69
2020/12/21 09:08:08;;;;;;;8.57;7.07;;;11.00;99.90;;;;;;5013457;28;20469;-69
2020/12/21 09:10:34;;;;;;;9.30;7.17;;;11.60;99.90;;;;;;5013397;28;20456;-71
2020/12/21 09:13:01;;;;;;;10.03;7.03;;;12.00;99.90;;;;;;5014151;28;20454;-72
2020/12/21 09:15:27;;;;;;;14.00;8.30;;;12.10;99.90;;;;;;5013594;28;20454;-72
2020/12/21 09:17:54;;;;;;;12.97;7.23;;;11.90;99.90;;;;;;5013478;28;20470;-72
2020/12/21 09:20:20;;;;;;;10.53;6.73;;;11.90;99.90;;;;;;5012559;28;20485;-72
2020/12/21 09:22:46;;;;;;;10.27;6.67;;;11.90;99.90;;;;;;5013858;28;20457;-72
2020/12/21 09:25:16;;;;;;;10.03;6.90;;;12.00;99.90;;;;;;5013715;28;20948;-73
2020/12/21 09:27:43;;;;;;;9.70;5.67;;;12.30;99.90;;;;;;5012973;28;21016;-72
2020/12/21 09:30:09;;;;;;;8.57;5.67;;;12.70;99.90;;;;;;5012507;28;20962;-72
2020/12/21 09:32:35;;;;;;;7.80;6.40;;;13.40;99.90;;;;;;5012818;28;20453;-73
2020/12/21 09:35:03;;;;;;;9.43;6.00;;;13.40;99.90;;;;;;5011557;28;20957;-72
2020/12/21 09:37:29;;;;;;;9.27;6.23;;;12.60;99.90;;;;;;5012004;28;20948;-73
2020/12/21 09:39:55;;;;;;;9.03;6.20;;;12.00;99.90;;;;;;5012503;28;20446;-73
2020/12/21 09:42:22;;;;;;;9.43;6.73;;;11.50;99.90;;;;;;5012524;28;20493;-72
2020/12/21 09:44:50;;;;;;;10.27;6.80;;;11.40;99.90;;;;;;5011296;28;20965;-70
2020/12/21 09:47:16;;;;;;;10.40;5.90;;;11.50;99.90;;;;;;5005760;28;20549;-72
2020/12/21 09:49:43;;;;;;;10.90;6.50;;;12.20;99.90;;;;;;5009088;28;20447;-72
2020/12/21 09:52:10;;;;;;;9.20;5.07;;;13.20;99.90;;;;;;5008378;28;20446;-72
2020/12/21 09:54:36;;;;;;;11.00;5.97;;;14.50;99.90;;;;;;5013741;28;20539;-72
2020/12/21 09:57:03;;;;;;;7.37;5.67;;;14.00;99.90;;;;;;5012470;28;20462;-71
2020/12/21 09:59:29;;;;;;;9.20;5.47;;;13.30;99.90;;;;;;5012129;28;20477;-72
2020/12/21 10:01:55;;;;;;;10.87;6.33;;;13.20;99.90;;;;;;5010546;28;20482;-72
2020/12/21 10:04:21;;;;;;;8.00;5.90;;;12.10;99.90;;;;;;5000892;28;20814;-72
2020/12/21 10:06:48;;;;;;;10.20;7.20;;;11.30;99.90;;;;;;5011380;28;20452;-72
2020/12/21 10:09:16;;;;;;;11.17;7.17;;;11.50;99.90;;;;;;5004562;28;20539;-72
2020/12/21 10:11:42;;;;;;;10.10;7.00;;;11.60;99.90;;;;;;5011365;28;20437;-70
2020/12/21 10:14:08;;;;;;;7.97;6.33;;;11.80;99.90;;;;;;5011369;28;20986;-70
2020/12/21 10:16:35;;;;;;;8.17;6.40;;;11.50;99.90;;;;;;5012402;28;20448;-70
2020/12/21 10:19:01;;;;;;;11.70;6.40;;;11.30;99.90;;;;;;5012245;28;20469;-70
2020/12/21 10:21:27;;;;;;;8.83;5.60;;;12.20;99.90;;;;;;5011986;28;20492;-70
2020/12/21 10:23:53;;;;;;;7.80;5.10;;;13.20;99.90;;;;;;5011396;28;20457;-71
2020/12/21 10:26:21;;;;;;;9.30;5.83;;;13.90;99.90;;;;;;5011965;28;20456;-70
2020/12/21 10:28:47;;;;;;;7.57;5.60;;;14.30;99.90;;;;;;5011817;28;20856;-70
2020/12/21 10:31:14;;;;;;;6.80;5.70;;;15.20;99.90;;;;;;5012030;28;20452;-71
2020/12/21 10:33:41;;;;;;;8.70;5.50;;;15.60;99.90;;;;;;5011854;28;20450;-70
2020/12/21 10:36:07;;;;;;;9.80;5.63;;;15.70;99.90;;;;;;5011775;28;20458;-70
2020/12/21 10:38:33;;;;;;;12.53;7.63;;;15.60;99.90;;;;;;5012046;28;20531;-70
2020/12/21 10:41:00;;;;;;;11.10;6.43;;;16.40;99.90;;;;;;5012253;28;20558;-71
2020/12/21 10:43:27;;;;;;;12.53;6.30;;;15.00;99.90;;;;;;5011511;28;20991;-71
2020/12/21 10:45:53;;;;;;;8.60;5.37;;;15.20;99.90;;;;;;5011762;28;20441;-70
2020/12/21 10:48:19;;;;;;;5.60;4.63;;;15.60;99.90;;;;;;5011416;28;20480;-70
2020/12/21 10:50:46;;;;;;;8.67;5.43;;;16.30;99.90;;;;;;5010854;28;20898;-70
2020/12/21 10:53:13;;;;;;;9.73;6.30;;;15.50;99.90;;;;;;5013867;28;20453;-71
2020/12/21 10:55:39;;;;;;;8.57;5.10;;;15.30;99.90;;;;;;5008160;28;20877;-70
2020/12/21 10:58:05;;;;;;;5.77;5.07;;;15.70;99.90;;;;;;5006748;28;20514;-70
2020/12/21 11:00:32;;;;;;;8.93;5.53;;;16.80;99.90;;;;;;5007889;28;20480;-70
2020/12/21 11:02:59;;;;;;;7.17;5.70;;;16.00;99.90;;;;;;5017212;28;20522;-70
2020/12/21 11:05:25;;;;;;;5.47;4.33;;;15.80;99.90;;;;;;5015499;28;20454;-70
2020/12/21 11:07:51;;;;;;;6.77;4.53;;;17.00;99.90;;;;;;5015385;28;20471;-70
2020/12/21 11:10:18;;;;;;;7.87;4.73;;;16.50;99.90;;;;;;5015214;28;20449;-71
2020/12/21 11:12:44;;;;;;;7.10;5.10;;;17.10;99.90;;;;;;5015045;28;21038;-68
2020/12/21 11:15:10;;;;;;;7.53;4.97;;;17.00;99.90;;;;;;5014775;28;20485;-70
2020/12/21 11:17:37;;;;;;;8.63;4.93;;;15.70;99.90;;;;;;5014542;28;20843;-70
2020/12/21 11:20:04;;;;;;;8.17;4.07;;;15.00;99.90;;;;;;5014811;28;20454;-70
2020/12/21 11:22:30;;;;;;;8.20;4.73;;;16.30;99.90;;;;;;5014770;28;20477;-69
2020/12/21 11:24:57;;;;;;;6.87;4.60;;;16.20;99.90;;;;;;5014835;28;20453;-70
2020/12/21 11:27:24;;;;;;;7.93;4.30;;;16.80;99.90;;;;;;5014745;28;20449;-70
2020/12/21 11:29:50;;;;;;;5.97;4.17;;;17.40;99.90;;;;;;5014723;28;20438;-69
2020/12/21 11:32:16;;;;;;;6.47;4.13;;;17.50;99.90;;;;;;5014023;28;20445;-70
2020/12/21 11:34:43;;;;;;;5.93;3.97;;;16.80;99.90;;;;;;5013698;28;20856;-69
2020/12/21 11:37:09;;;;;;;5.67;4.03;;;17.30;99.90;;;;;;5014977;28;20458;-70
2020/12/21 11:39:36;;;;;;;10.80;4.27;;;17.40;99.90;;;;;;5014165;28;20469;-70
2020/12/21 11:42:06;;;;;;;5.90;4.60;;;16.00;99.90;;;;;;5013905;28;20493;-70
2020/12/21 11:44:32;;;;;;;6.23;3.83;;;17.10;99.90;;;;;;4989711;28;20477;-70
2020/12/21 11:46:59;;;;;;;7.07;4.27;;;17.30;99.90;;;;;;4993733;28;20459;-69
2020/12/21 11:49:25;;;;;;;7.57;3.80;;;17.30;99.90;;;;;;4994573;28;20475;-71
2020/12/21 11:51:54;;;;;;;7.20;3.50;;;17.80;99.90;;;;;;4994514;28;21009;-71
2020/12/21 11:54:21;;;;;;;5.27;3.50;;;17.60;99.90;;;;;;4994136;28;21241;-71
2020/12/21 11:56:47;;;;;;;7.07;3.70;;;17.50;99.90;;;;;;4994401;28;20508;-70
2020/12/21 11:59:14;;;;;;;8.03;4.60;;;17.00;99.90;;;;;;4993873;28;20482;-70
2020/12/21 12:01:40;;;;;;;5.40;3.27;;;17.70;99.90;;;;;;4993807;28;20485;-71
2020/12/21 12:04:06;;;;;;;6.40;3.90;;;17.40;99.90;;;;;;4993268;28;20465;-70
2020/12/21 12:06:32;;;;;;;6.57;3.57;;;16.70;99.90;;;;;;4994736;28;20450;-71
2020/12/21 12:08:59;;;;;;;4.20;3.50;;;17.20;99.90;;;;;;4994306;28;20485;-70
2020/12/21 12:11:26;;;;;;;7.20;3.73;;;17.00;99.90;;;;;;4994255;28;20802;-70
2020/12/21 12:13:52;;;;;;;7.47;4.17;;;17.20;99.90;;;;;;4993793;28;20466;-70
2020/12/21 12:16:20;;;;;;;7.17;4.20;;;17.20;99.90;;;;;;4994508;28;20520;-70
2020/12/21 12:18:46;;;;;;;6.47;3.97;;;16.70;99.90;;;;;;4994103;28;21006;-70
2020/12/21 12:21:19;;;;;;;6.53;3.77;;;16.70;99.90;;;;;;4994239;28;20494;-70
2020/12/21 12:23:46;;;;;;;6.33;3.60;;;17.40;99.90;;;;;;4993843;28;20498;-69
2020/12/21 12:26:16;;;;;;;5.03;3.37;;;17.00;99.90;;;;;;4994440;28;20462;-69
2020/12/21 12:28:42;;;;;;;7.43;3.40;;;17.30;99.90;;;;;;4993794;28;20487;-70
2020/12/21 12:31:09;;;;;;;5.83;3.70;;;16.80;99.90;;;;;;4994394;28;20454;-70
2020/12/21 12:33:35;;;;;;;7.07;3.60;;;16.10;99.90;;;;;;4992468;28;20546;-70
2020/12/21 12:36:01;;;;;;;5.20;3.77;;;15.80;99.90;;;;;;4994606;28;20557;-69
2020/12/21 12:38:27;;;;;;;4.83;3.27;;;15.50;99.90;;;;;;4994210;28;20470;-72
2020/12/21 12:40:54;;;;;;;6.33;3.57;;;15.10;99.90;;;;;;4993929;28;21056;-70